Hundvaag 1 weather for Jul 2004
Month no. 205
Obs.
Da.
Temp. Dew Point Precip. Wind
Speed
Wind gusts Cloud cover Press. Humidity Wind dir. Sunny OPT
01.07.2004 12,9   2,5 6,0   0 1005,1 94,0 135,0   65,0 %
02.07.2004 11,6   3,7 0,0   7 1001,9 95,0   1 80,0 %
03.07.2004 14,1   0,0 6,0   6 1005,3 82,0 90,0 1 80,0 %
04.07.2004 15,0   35,8 1,0   1 1006,7 94,0   1 47,5 %
05.07.2004 12,6   0,0 5,0   7 1009,9 94,0 337,5 1 82,5 %
06.07.2004 12,0   0,0 15,0   2 1013,6 77,0 337,5 1 60,0 %
07.07.2004 11,5   0,0 9,0   1 1016,8 76,0 337,5 1 62,5 %
08.07.2004 10,2   0,0 3,0   9 1015,3 87,0   1 87,5 %
09.07.2004 14,7   0,5 8,0   1 1010,0 77,0 45,0   65,0 %
10.07.2004 10,8   9,8 0,0   0 1004,3 96,0     57,5 %
11.07.2004 12,3   0,2 2,0   0 1001,9 89,0 337,5   65,0 %
12.07.2004 11,1   0,0 4,0   0 999,9 79,0 337,5   62,5 %
13.07.2004 10,2   0,1 2,0   0 1003,9 78,0 337,5   65,0 %
14.07.2004 11,2   0,0 0,0   0 1006,0 86,0     65,0 %
15.07.2004 7,8   0,0 0,0   0 1005,6 95,0     62,5 %
16.07.2004 7,3   0,0 0,0   0 1009,6 94,0     60,0 %
17.07.2004 13,0   1,0 4,0   7 1012,1 85,0 180,0 1 82,5 %
18.07.2004 13,3   7,0 0,0   9 1008,4 96,0   1 85,0 %
19.07.2004 10,2   0,0 0,0   10 1012,8 94,0   1 90,0 %
20.07.2004 11,1   0,0 0,0   7 1016,5 91,0   1 82,5 %
21.07.2004 10,9   0,0 0,0   10 1015,1 87,0   1 90,0 %
22.07.2004 12,6   0,0 0,0   8 1019,9 93,0   1 87,5 %
23.07.2004 13,8   0,0 0,0   9 1018,5 94,0   1 90,0 %
24.07.2004 11,8   10,5 0,0   8 1017,2 96,0   1 77,5 %
25.07.2004 11,1   15,0 2,0   10 1008,7 92,0 270,0 1 77,5 %
26.07.2004 10,9   8,1 0,0   7 1008,4 94,0   1 77,5 %
27.07.2004 10,1   0,0 0,0   7 1014,8 95,0   1 82,5 %
28.07.2004 12,8   0,1 0,0   9 1019,5 95,0   1 90,0 %
29.07.2004 10,4   0,0 0,0   3 1020,2 96,0   1 72,5 %
30.07.2004 11,4   0,0 0,0   10 1020,5 95,0   1 90,0 %
31.07.2004 13,6   0,0 0,0   10 1021,6 92,0   1 92,5 %
Avrg/Sum 11,7   94,3 2,2   5,1 1011,3 89,9 249,5 22 75,3 %